DAL1329 KATL-KPHL
Flight info
| Callsign | DAL1329 |
|---|---|
| Flight time | 1h 36m |
| Altitude | 33000 |
| Route | PLMMR3 BURGG Q22 BEARI BBDOL PAATS4 |
| Aircraft | A321/M-SDE3FGHIRWY/LB1 |
Departure
| Time | 2026-05-04 20:35 |
|---|---|
| Airport | Hartsfield Jackson Atlanta International Airport (KATL) |
Arrival
| Time | 2026-05-04 22:12 |
|---|---|
| Airport | Philadelphia International Airport (KPHL) |
| Time | Latitude | Longitude | Altitude | Speed | Heading |
|---|---|---|---|---|---|
| 2026-05-04 19:52 | 33.63904 | -84.42996 | 1006 ft | 0 kts | 90° |
| 2026-05-04 20:27 | 33.63904 | -84.43010 | 1006 ft | 2 kts | 90° |
| 2026-05-04 20:27 | 33.63904 | -84.43027 | 1007 ft | 2 kts | 90° |
| 2026-05-04 20:27 | 33.63905 | -84.43045 | 1007 ft | 2 kts | 115° |
| 2026-05-04 20:27 | 33.63914 | -84.43060 | 1007 ft | 2 kts | 140° |
| 2026-05-04 20:28 | 33.63927 | -84.43069 | 1007 ft | 2 kts | 166° |
| 2026-05-04 20:28 | 33.63934 | -84.43070 | 1007 ft | 1 kts | 180° |
| 2026-05-04 20:28 | 33.63938 | -84.43070 | 1007 ft | 0 kts | 176° |
| 2026-05-04 20:30 | 33.63936 | -84.43070 | 1007 ft | 2 kts | 175° |
| 2026-05-04 20:30 | 33.63892 | -84.43065 | 1007 ft | 8 kts | 178° |
| 2026-05-04 20:30 | 33.63830 | -84.43065 | 1007 ft | 9 kts | 181° |
| 2026-05-04 20:31 | 33.63761 | -84.43066 | 1007 ft | 10 kts | 180° |
| 2026-05-04 20:31 | 33.63689 | -84.43052 | 1006 ft | 11 kts | 144° |
| 2026-05-04 20:31 | 33.63663 | -84.42939 | 1004 ft | 16 kts | 91° |
| 2026-05-04 20:31 | 33.63662 | -84.42793 | 1002 ft | 18 kts | 91° |
| 2026-05-04 20:32 | 33.63654 | -84.42635 | 999 ft | 19 kts | 91° |
| 2026-05-04 20:32 | 33.63654 | -84.42459 | 994 ft | 22 kts | 91° |
| 2026-05-04 20:32 | 33.63653 | -84.42268 | 988 ft | 24 kts | 90° |
| 2026-05-04 20:32 | 33.63652 | -84.42062 | 982 ft | 24 kts | 90° |
| 2026-05-04 20:33 | 33.63653 | -84.41846 | 973 ft | 27 kts | 89° |
| 2026-05-04 20:33 | 33.63654 | -84.41620 | 969 ft | 27 kts | 90° |
| 2026-05-04 20:33 | 33.63654 | -84.41386 | 963 ft | 28 kts | 90° |
| 2026-05-04 20:33 | 33.63655 | -84.41149 | 959 ft | 28 kts | 90° |
| 2026-05-04 20:34 | 33.63656 | -84.40987 | 957 ft | 17 kts | 90° |
| 2026-05-04 20:34 | 33.63592 | -84.40905 | 956 ft | 15 kts | 180° |
| 2026-05-04 20:34 | 33.63493 | -84.40910 | 956 ft | 9 kts | 198° |
| 2026-05-04 20:34 | 33.63471 | -84.40970 | 957 ft | 7 kts | 269° |
| 2026-05-04 20:35 | 33.63470 | -84.41131 | 959 ft | 52 kts | 270° |
| 2026-05-04 20:35 | 33.63471 | -84.41898 | 977 ft | 129 kts | 270° |
| 2026-05-04 20:35 | 33.63469 | -84.43234 | 1046 ft | 186 kts | 268° |
| 2026-05-04 20:35 | 33.63469 | -84.44821 | 1711 ft | 195 kts | 268° |
| 2026-05-04 20:36 | 33.63458 | -84.46449 | 2521 ft | 204 kts | 266° |
| 2026-05-04 20:36 | 33.63312 | -84.48125 | 3358 ft | 197 kts | 256° |
| 2026-05-04 20:36 | 33.62828 | -84.49574 | 4045 ft | 187 kts | 242° |
| 2026-05-04 20:36 | 33.62241 | -84.50928 | 4652 ft | 183 kts | 241° |
| 2026-05-04 20:37 | 33.61623 | -84.52262 | 5129 ft | 186 kts | 239° |
| 2026-05-04 20:37 | 33.60936 | -84.53666 | 5430 ft | 202 kts | 239° |
| 2026-05-04 20:37 | 33.60238 | -84.55155 | 5828 ft | 212 kts | 241° |
| 2026-05-04 20:37 | 33.59522 | -84.56730 | 6322 ft | 219 kts | 239° |
| 2026-05-04 20:38 | 33.58598 | -84.58222 | 6856 ft | 224 kts | 224° |
| 2026-05-04 20:38 | 33.57384 | -84.59367 | 7420 ft | 226 kts | 210° |
| 2026-05-04 20:38 | 33.55933 | -84.60072 | 8012 ft | 228 kts | 191° |
| 2026-05-04 20:38 | 33.54353 | -84.60087 | 8610 ft | 230 kts | 169° |
| 2026-05-04 20:39 | 33.52837 | -84.59490 | 9196 ft | 232 kts | 161° |
| 2026-05-04 20:39 | 33.51339 | -84.58785 | 9764 ft | 234 kts | 163° |
| 2026-05-04 20:39 | 33.49737 | -84.58366 | 10270 ft | 238 kts | 173° |
| 2026-05-04 20:39 | 33.48084 | -84.57904 | 10637 ft | 251 kts | 158° |
| 2026-05-04 20:40 | 33.46630 | -84.56659 | 10922 ft | 269 kts | 131° |
| 2026-05-04 20:40 | 33.45749 | -84.54655 | 11206 ft | 286 kts | 104° |
| 2026-05-04 20:40 | 33.45609 | -84.52225 | 11515 ft | 300 kts | 91° |
| 2026-05-04 20:40 | 33.45623 | -84.49670 | 11785 ft | 315 kts | 90° |
| 2026-05-04 20:41 | 33.45631 | -84.46983 | 12048 ft | 329 kts | 91° |
| 2026-05-04 20:41 | 33.45627 | -84.44199 | 12301 ft | 343 kts | 91° |
| 2026-05-04 20:41 | 33.45615 | -84.41278 | 12560 ft | 357 kts | 91° |
| 2026-05-04 20:41 | 33.45599 | -84.38263 | 12988 ft | 363 kts | 90° |
| 2026-05-04 20:42 | 33.45738 | -84.35246 | 13488 ft | 367 kts | 78° |
| 2026-05-04 20:42 | 33.46668 | -84.32425 | 13982 ft | 368 kts | 57° |
| 2026-05-04 20:42 | 33.48296 | -84.30093 | 14522 ft | 367 kts | 44° |
| 2026-05-04 20:42 | 33.50107 | -84.27929 | 15017 ft | 371 kts | 43° |
| 2026-05-04 20:43 | 33.51950 | -84.25746 | 15503 ft | 375 kts | 43° |
| 2026-05-04 20:43 | 33.53185 | -84.24276 | 15829 ft | 377 kts | 43° |
| 2026-05-04 20:43 | 33.55660 | -84.21302 | 16470 ft | 381 kts | 43° |
| 2026-05-04 20:43 | 33.57518 | -84.19053 | 16948 ft | 384 kts | 43° |
| 2026-05-04 20:44 | 33.59394 | -84.16772 | 17419 ft | 387 kts | 43° |
| 2026-05-04 20:44 | 33.61309 | -84.14439 | 17889 ft | 389 kts | 43° |
| 2026-05-04 20:44 | 33.63186 | -84.12148 | 18329 ft | 392 kts | 43° |
| 2026-05-04 20:44 | 33.65109 | -84.09795 | 18758 ft | 396 kts | 43° |
| 2026-05-04 20:45 | 33.67042 | -84.07430 | 19182 ft | 399 kts | 43° |
| 2026-05-04 20:45 | 33.68989 | -84.05046 | 19586 ft | 402 kts | 43° |
| 2026-05-04 20:45 | 33.70949 | -84.02644 | 19995 ft | 405 kts | 43° |
| 2026-05-04 20:45 | 33.72934 | -84.00211 | 20394 ft | 408 kts | 43° |
| 2026-05-04 20:46 | 33.74931 | -83.97759 | 20803 ft | 411 kts | 43° |
| 2026-05-04 20:46 | 33.76937 | -83.95296 | 21202 ft | 414 kts | 43° |
| 2026-05-04 20:46 | 33.78958 | -83.92812 | 21617 ft | 417 kts | 42° |
| 2026-05-04 20:46 | 33.80986 | -83.90318 | 22015 ft | 419 kts | 42° |
| 2026-05-04 20:47 | 33.83025 | -83.87810 | 22395 ft | 422 kts | 42° |
| 2026-05-04 20:47 | 33.85071 | -83.85291 | 22769 ft | 425 kts | 42° |
| 2026-05-04 20:47 | 33.87159 | -83.82718 | 23134 ft | 428 kts | 42° |
| 2026-05-04 20:47 | 33.89224 | -83.80170 | 23471 ft | 431 kts | 42° |
| 2026-05-04 20:48 | 33.91345 | -83.77553 | 23807 ft | 435 kts | 42° |
| 2026-05-04 20:48 | 33.93449 | -83.74944 | 24190 ft | 437 kts | 43° |
| 2026-05-04 20:48 | 33.95461 | -83.72240 | 24555 ft | 441 kts | 46° |
| 2026-05-04 20:48 | 33.96755 | -83.70309 | 24805 ft | 443 kts | 49° |
| 2026-05-04 20:49 | 33.99211 | -83.66362 | 25258 ft | 446 kts | 50° |
| 2026-05-04 20:49 | 34.01071 | -83.63319 | 25586 ft | 448 kts | 50° |
| 2026-05-04 20:49 | 34.02912 | -83.60303 | 25911 ft | 450 kts | 50° |
| 2026-05-04 20:49 | 34.04760 | -83.57275 | 26249 ft | 452 kts | 50° |
| 2026-05-04 20:50 | 34.06633 | -83.54211 | 26584 ft | 453 kts | 50° |
| 2026-05-04 20:50 | 34.08512 | -83.51138 | 26897 ft | 455 kts | 50° |
| 2026-05-04 20:50 | 34.10365 | -83.48109 | 27185 ft | 457 kts | 49° |
| 2026-05-04 20:50 | 34.12265 | -83.45003 | 27473 ft | 459 kts | 50° |
| 2026-05-04 20:51 | 34.13541 | -83.42913 | 27658 ft | 461 kts | 50° |
| 2026-05-04 20:51 | 34.16073 | -83.38765 | 28014 ft | 464 kts | 50° |
| 2026-05-04 20:51 | 34.17982 | -83.35633 | 28285 ft | 466 kts | 49° |
| 2026-05-04 20:51 | 34.19928 | -83.32438 | 28539 ft | 468 kts | 50° |
| 2026-05-04 20:52 | 34.21218 | -83.30318 | 28707 ft | 469 kts | 50° |
| 2026-05-04 20:52 | 34.23137 | -83.27162 | 28979 ft | 470 kts | 50° |
| 2026-05-04 20:52 | 34.25708 | -83.22929 | 29438 ft | 469 kts | 50° |
| 2026-05-04 20:52 | 34.27645 | -83.19734 | 29801 ft | 468 kts | 50° |
| 2026-05-04 20:53 | 34.29570 | -83.16560 | 30144 ft | 467 kts | 49° |
| 2026-05-04 20:53 | 34.31469 | -83.13431 | 30479 ft | 467 kts | 49° |
| 2026-05-04 20:53 | 34.33392 | -83.10289 | 30793 ft | 466 kts | 49° |
| 2026-05-04 20:53 | 34.35341 | -83.07116 | 31118 ft | 466 kts | 49° |
| 2026-05-04 20:54 | 34.37266 | -83.03974 | 31405 ft | 466 kts | 50° |
| 2026-05-04 20:54 | 34.39179 | -83.00848 | 31647 ft | 467 kts | 50° |
| 2026-05-04 20:54 | 34.41119 | -82.97671 | 31878 ft | 468 kts | 50° |
| 2026-05-04 20:54 | 34.43039 | -82.94523 | 32118 ft | 469 kts | 50° |
| 2026-05-04 20:55 | 34.44990 | -82.91319 | 32362 ft | 470 kts | 50° |
| 2026-05-04 20:55 | 34.46909 | -82.88169 | 32595 ft | 471 kts | 50° |
| 2026-05-04 20:55 | 34.48868 | -82.84949 | 32817 ft | 472 kts | 50° |
| 2026-05-04 20:55 | 34.50799 | -82.81773 | 32985 ft | 473 kts | 50° |
| 2026-05-04 20:56 | 34.54689 | -82.75363 | 32990 ft | 474 kts | 50° |
| 2026-05-04 20:56 | 34.58603 | -82.68900 | 32996 ft | 474 kts | 50° |
| 2026-05-04 20:57 | 34.62512 | -82.62438 | 33000 ft | 483 kts | 50° |
| 2026-05-04 20:57 | 34.66512 | -82.55813 | 32995 ft | 493 kts | 50° |
| 2026-05-04 20:58 | 34.70536 | -82.48999 | 32995 ft | 498 kts | 50° |
| 2026-05-04 20:58 | 34.74544 | -82.42152 | 32995 ft | 498 kts | 50° |
| 2026-05-04 20:59 | 34.78561 | -82.35281 | 32995 ft | 498 kts | 50° |
| 2026-05-04 20:59 | 34.82566 | -82.28432 | 32998 ft | 498 kts | 51° |
| 2026-05-04 21:00 | 34.85900 | -82.22720 | 32994 ft | 498 kts | 51° |
| 2026-05-04 21:00 | 34.90573 | -82.14699 | 32994 ft | 499 kts | 51° |
| 2026-05-04 21:01 | 34.94570 | -82.07824 | 32995 ft | 500 kts | 51° |
| 2026-05-04 21:01 | 34.98576 | -82.00916 | 32990 ft | 500 kts | 51° |
| 2026-05-04 21:02 | 35.01926 | -81.95129 | 32986 ft | 499 kts | 51° |
| 2026-05-04 21:02 | 35.05998 | -81.88294 | 32990 ft | 498 kts | 49° |
| 2026-05-04 21:03 | 35.10886 | -81.80480 | 32994 ft | 499 kts | 48° |
| 2026-05-04 21:03 | 35.14380 | -81.74875 | 32992 ft | 499 kts | 49° |
| 2026-05-04 21:04 | 35.19260 | -81.66991 | 32994 ft | 499 kts | 49° |
| 2026-05-04 21:04 | 35.23438 | -81.60219 | 32998 ft | 499 kts | 49° |
| 2026-05-04 21:05 | 35.26900 | -81.54594 | 32999 ft | 498 kts | 49° |
| 2026-05-04 21:05 | 35.31747 | -81.46706 | 32995 ft | 498 kts | 49° |
| 2026-05-04 21:06 | 35.35912 | -81.39911 | 32992 ft | 498 kts | 48° |
| 2026-05-04 21:06 | 35.40050 | -81.33148 | 32983 ft | 497 kts | 49° |
| 2026-05-04 21:07 | 35.43487 | -81.27523 | 32981 ft | 497 kts | 49° |
| 2026-05-04 21:07 | 35.48333 | -81.19572 | 32982 ft | 497 kts | 49° |
| 2026-05-04 21:08 | 35.52463 | -81.12784 | 32979 ft | 497 kts | 49° |
| 2026-05-04 21:08 | 35.56587 | -81.05991 | 32976 ft | 497 kts | 49° |
| 2026-05-04 21:09 | 35.60702 | -80.99204 | 32977 ft | 498 kts | 49° |
| 2026-05-04 21:09 | 35.64818 | -80.92396 | 32977 ft | 497 kts | 49° |
| 2026-05-04 21:10 | 35.68938 | -80.85571 | 32979 ft | 496 kts | 49° |
| 2026-05-04 21:10 | 35.73031 | -80.78778 | 32975 ft | 496 kts | 49° |
| 2026-05-04 21:11 | 35.77125 | -80.71970 | 32975 ft | 496 kts | 49° |
| 2026-05-04 21:11 | 35.81230 | -80.65131 | 32979 ft | 497 kts | 49° |
| 2026-05-04 21:12 | 35.85326 | -80.58289 | 32969 ft | 497 kts | 49° |
| 2026-05-04 21:12 | 35.89418 | -80.51442 | 32968 ft | 497 kts | 49° |
| 2026-05-04 21:13 | 35.93504 | -80.44593 | 32966 ft | 497 kts | 49° |
| 2026-05-04 21:13 | 35.97584 | -80.37735 | 32968 ft | 497 kts | 49° |
| 2026-05-04 21:14 | 36.01663 | -80.30894 | 32971 ft | 496 kts | 49° |
| 2026-05-04 21:14 | 36.05767 | -80.24000 | 32962 ft | 497 kts | 49° |
| 2026-05-04 21:15 | 36.09175 | -80.18260 | 32972 ft | 497 kts | 49° |
| 2026-05-04 21:15 | 36.13918 | -80.10261 | 32974 ft | 497 kts | 49° |
| 2026-05-04 21:16 | 36.16637 | -80.05660 | 32974 ft | 498 kts | 49° |
| 2026-05-04 21:16 | 36.22057 | -79.96479 | 32979 ft | 497 kts | 49° |
| 2026-05-04 21:17 | 36.26133 | -79.89563 | 32982 ft | 498 kts | 49° |
| 2026-05-04 21:17 | 36.30214 | -79.82624 | 32981 ft | 497 kts | 49° |
| 2026-05-04 21:18 | 36.34273 | -79.75710 | 32976 ft | 497 kts | 49° |
| 2026-05-04 21:18 | 36.38335 | -79.68774 | 32972 ft | 498 kts | 49° |
| 2026-05-04 21:19 | 36.41733 | -79.62957 | 32966 ft | 498 kts | 49° |
| 2026-05-04 21:19 | 36.46444 | -79.54882 | 32965 ft | 499 kts | 49° |
| 2026-05-04 21:20 | 36.50505 | -79.47904 | 32964 ft | 499 kts | 49° |
| 2026-05-04 21:20 | 36.54518 | -79.40989 | 32968 ft | 493 kts | 49° |
| 2026-05-04 21:21 | 36.58535 | -79.34061 | 32969 ft | 492 kts | 50° |
| 2026-05-04 21:21 | 36.61862 | -79.28316 | 32969 ft | 493 kts | 50° |
| 2026-05-04 21:22 | 36.66526 | -79.20236 | 32964 ft | 493 kts | 50° |
| 2026-05-04 21:22 | 36.70517 | -79.13312 | 32965 ft | 494 kts | 50° |
| 2026-05-04 21:23 | 36.74505 | -79.06371 | 32966 ft | 493 kts | 50° |
| 2026-05-04 21:23 | 36.78492 | -78.99421 | 32961 ft | 493 kts | 50° |
| 2026-05-04 21:24 | 36.82472 | -78.92470 | 32958 ft | 494 kts | 50° |
| 2026-05-04 21:24 | 36.85776 | -78.86659 | 32956 ft | 493 kts | 50° |
| 2026-05-04 21:25 | 36.90391 | -78.78503 | 32950 ft | 493 kts | 50° |
| 2026-05-04 21:25 | 36.94342 | -78.71506 | 32952 ft | 494 kts | 50° |
| 2026-05-04 21:26 | 36.98278 | -78.64522 | 32955 ft | 494 kts | 50° |
| 2026-05-04 21:26 | 37.02231 | -78.57496 | 32953 ft | 494 kts | 50° |
| 2026-05-04 21:27 | 37.06149 | -78.50520 | 32950 ft | 493 kts | 50° |
| 2026-05-04 21:27 | 37.10084 | -78.43499 | 32949 ft | 493 kts | 50° |
| 2026-05-04 21:28 | 37.14012 | -78.36472 | 32945 ft | 492 kts | 50° |
| 2026-05-04 21:28 | 37.18146 | -78.29635 | 32943 ft | 488 kts | 45° |
| 2026-05-04 21:29 | 37.22769 | -78.23549 | 32939 ft | 482 kts | 38° |
| 2026-05-04 21:29 | 37.27862 | -78.18227 | 32936 ft | 475 kts | 31° |
| 2026-05-04 21:30 | 37.33161 | -78.13284 | 32931 ft | 475 kts | 31° |
| 2026-05-04 21:30 | 37.38486 | -78.08324 | 32926 ft | 475 kts | 31° |
| 2026-05-04 21:31 | 37.46418 | -78.00873 | 32927 ft | 476 kts | 31° |
| 2026-05-04 21:32 | 37.51688 | -77.95901 | 32921 ft | 475 kts | 31° |
| 2026-05-04 21:32 | 37.56988 | -77.90892 | 32918 ft | 474 kts | 31° |
| 2026-05-04 21:33 | 37.62224 | -77.85932 | 32912 ft | 473 kts | 31° |
| 2026-05-04 21:33 | 37.67482 | -77.80961 | 32908 ft | 472 kts | 31° |
| 2026-05-04 21:34 | 37.72738 | -77.75994 | 32905 ft | 472 kts | 31° |
| 2026-05-04 21:34 | 37.77995 | -77.71012 | 32907 ft | 472 kts | 31° |
| 2026-05-04 21:35 | 37.83222 | -77.66034 | 32905 ft | 471 kts | 32° |
| 2026-05-04 21:35 | 37.88428 | -77.61037 | 32905 ft | 471 kts | 32° |
| 2026-05-04 21:36 | 37.93655 | -77.56010 | 32900 ft | 470 kts | 32° |
| 2026-05-04 21:36 | 37.98844 | -77.51014 | 32898 ft | 469 kts | 32° |
| 2026-05-04 21:37 | 38.04014 | -77.46030 | 32900 ft | 469 kts | 32° |
| 2026-05-04 21:37 | 38.09249 | -77.41195 | 32897 ft | 465 kts | 29° |
| 2026-05-04 21:38 | 38.13759 | -77.37370 | 32900 ft | 465 kts | 28° |
| 2026-05-04 21:38 | 38.19102 | -77.32864 | 32899 ft | 464 kts | 29° |
| 2026-05-04 21:39 | 38.25388 | -77.27534 | 32904 ft | 464 kts | 29° |
| 2026-05-04 21:39 | 38.30778 | -77.22951 | 32904 ft | 463 kts | 29° |
| 2026-05-04 21:40 | 38.36042 | -77.18352 | 32901 ft | 463 kts | 32° |
| 2026-05-04 21:40 | 38.41030 | -77.13062 | 32906 ft | 468 kts | 39° |
| 2026-05-04 21:41 | 38.45633 | -77.07198 | 32900 ft | 468 kts | 41° |
| 2026-05-04 21:41 | 38.50147 | -77.01272 | 32896 ft | 467 kts | 41° |
| 2026-05-04 21:42 | 38.54673 | -76.95340 | 32901 ft | 467 kts | 41° |
| 2026-05-04 21:42 | 38.59199 | -76.89414 | 32900 ft | 465 kts | 41° |
| 2026-05-04 21:43 | 38.63696 | -76.83505 | 32897 ft | 465 kts | 42° |
| 2026-05-04 21:43 | 38.67764 | -76.77074 | 32898 ft | 470 kts | 52° |
| 2026-05-04 21:44 | 38.70990 | -76.69775 | 32903 ft | 474 kts | 62° |
| 2026-05-04 21:44 | 38.73225 | -76.61872 | 32905 ft | 477 kts | 71° |
| 2026-05-04 21:45 | 38.74923 | -76.53699 | 32899 ft | 477 kts | 72° |
| 2026-05-04 21:45 | 38.76594 | -76.45509 | 32899 ft | 476 kts | 72° |
| 2026-05-04 21:46 | 38.78285 | -76.37305 | 32904 ft | 476 kts | 72° |
| 2026-05-04 21:46 | 38.79972 | -76.29130 | 32892 ft | 471 kts | 72° |
| 2026-05-04 21:46 | 38.80785 | -76.25170 | 32896 ft | 456 kts | 72° |
| 2026-05-04 21:47 | 38.81591 | -76.21250 | 32902 ft | 453 kts | 72° |
| 2026-05-04 21:47 | 38.82392 | -76.17354 | 32776 ft | 454 kts | 72° |
| 2026-05-04 21:47 | 38.83191 | -76.13462 | 32362 ft | 449 kts | 72° |
| 2026-05-04 21:47 | 38.83983 | -76.09594 | 31918 ft | 445 kts | 72° |
| 2026-05-04 21:48 | 38.84755 | -76.05807 | 31462 ft | 441 kts | 72° |
| 2026-05-04 21:48 | 38.85528 | -76.02009 | 31001 ft | 437 kts | 72° |
| 2026-05-04 21:48 | 38.86285 | -75.98275 | 30518 ft | 433 kts | 72° |
| 2026-05-04 21:48 | 38.87030 | -75.94586 | 30016 ft | 429 kts | 72° |
| 2026-05-04 21:49 | 38.87764 | -75.90926 | 29486 ft | 426 kts | 72° |
| 2026-05-04 21:49 | 38.88579 | -75.87292 | 28930 ft | 420 kts | 65° |
| 2026-05-04 21:49 | 38.89920 | -75.84017 | 28369 ft | 411 kts | 51° |
| 2026-05-04 21:49 | 38.91762 | -75.81303 | 27833 ft | 400 kts | 37° |
| 2026-05-04 21:50 | 38.93941 | -75.79108 | 27293 ft | 394 kts | 31° |
| 2026-05-04 21:50 | 38.95416 | -75.77747 | 26918 ft | 392 kts | 31° |
| 2026-05-04 21:50 | 38.98368 | -75.75042 | 26186 ft | 390 kts | 31° |
| 2026-05-04 21:50 | 39.00534 | -75.73024 | 25671 ft | 387 kts | 31° |
| 2026-05-04 21:51 | 39.02697 | -75.70991 | 25068 ft | 387 kts | 31° |
| 2026-05-04 21:51 | 39.04955 | -75.69167 | 24495 ft | 379 kts | 21° |
| 2026-05-04 21:51 | 39.07364 | -75.67948 | 24103 ft | 368 kts | 11° |
| 2026-05-04 21:51 | 39.09829 | -75.67318 | 23611 ft | 360 kts | 1° |
| 2026-05-04 21:52 | 39.11492 | -75.67107 | 23306 ft | 358 kts | 360° |
| 2026-05-04 21:52 | 39.14766 | -75.66775 | 22732 ft | 354 kts | 359° |
| 2026-05-04 21:52 | 39.17244 | -75.66528 | 22293 ft | 353 kts | 359° |
| 2026-05-04 21:52 | 39.19675 | -75.66276 | 21860 ft | 351 kts | 359° |
| 2026-05-04 21:53 | 39.22116 | -75.66015 | 21430 ft | 350 kts | 360° |
| 2026-05-04 21:53 | 39.24527 | -75.65755 | 21014 ft | 348 kts | 360° |
| 2026-05-04 21:53 | 39.26938 | -75.65297 | 20581 ft | 351 kts | 8° |
| 2026-05-04 21:53 | 39.29280 | -75.64280 | 20155 ft | 354 kts | 19° |
| 2026-05-04 21:54 | 39.31433 | -75.62764 | 19741 ft | 358 kts | 27° |
| 2026-05-04 21:54 | 39.33509 | -75.60981 | 19282 ft | 358 kts | 29° |
| 2026-05-04 21:54 | 39.35561 | -75.59164 | 18844 ft | 355 kts | 29° |
| 2026-05-04 21:54 | 39.37524 | -75.57198 | 18387 ft | 358 kts | 39° |
| 2026-05-04 21:55 | 39.39120 | -75.54732 | 17963 ft | 361 kts | 50° |
| 2026-05-04 21:55 | 39.40663 | -75.52222 | 17488 ft | 358 kts | 43° |
| 2026-05-04 21:55 | 39.42402 | -75.49928 | 17037 ft | 355 kts | 40° |
| 2026-05-04 21:55 | 39.44145 | -75.47694 | 16674 ft | 351 kts | 40° |
| 2026-05-04 21:56 | 39.45846 | -75.45473 | 16254 ft | 350 kts | 41° |
| 2026-05-04 21:56 | 39.47551 | -75.43198 | 15853 ft | 348 kts | 41° |
| 2026-05-04 21:56 | 39.49211 | -75.40949 | 15438 ft | 347 kts | 41° |
| 2026-05-04 21:56 | 39.50876 | -75.38671 | 15019 ft | 345 kts | 41° |
| 2026-05-04 21:57 | 39.52512 | -75.36420 | 14606 ft | 343 kts | 42° |
| 2026-05-04 21:57 | 39.53592 | -75.34931 | 14347 ft | 342 kts | 42° |
| 2026-05-04 21:57 | 39.55742 | -75.31956 | 13786 ft | 340 kts | 43° |
| 2026-05-04 21:57 | 39.56818 | -75.30466 | 13518 ft | 338 kts | 43° |
| 2026-05-04 21:58 | 39.58961 | -75.27492 | 12961 ft | 336 kts | 43° |
| 2026-05-04 21:58 | 39.60537 | -75.25305 | 12544 ft | 333 kts | 43° |
| 2026-05-04 21:58 | 39.62107 | -75.23122 | 12137 ft | 331 kts | 43° |
| 2026-05-04 21:58 | 39.63671 | -75.20947 | 11726 ft | 329 kts | 43° |
| 2026-05-04 21:59 | 39.65231 | -75.18774 | 11299 ft | 327 kts | 43° |
| 2026-05-04 21:59 | 39.66763 | -75.16641 | 10877 ft | 325 kts | 43° |
| 2026-05-04 21:59 | 39.68298 | -75.14502 | 10520 ft | 321 kts | 43° |
| 2026-05-04 21:59 | 39.69827 | -75.12368 | 10294 ft | 321 kts | 43° |
| 2026-05-04 22:00 | 39.71353 | -75.10240 | 10095 ft | 321 kts | 43° |
| 2026-05-04 22:00 | 39.72864 | -75.08130 | 9891 ft | 321 kts | 43° |
| 2026-05-04 22:00 | 39.74383 | -75.06004 | 9518 ft | 319 kts | 43° |
| 2026-05-04 22:00 | 39.75877 | -75.03919 | 9159 ft | 317 kts | 43° |
| 2026-05-04 22:01 | 39.77369 | -75.01835 | 8640 ft | 317 kts | 43° |
| 2026-05-04 22:01 | 39.78867 | -74.99740 | 8174 ft | 316 kts | 44° |
| 2026-05-04 22:01 | 39.80370 | -74.97633 | 7728 ft | 316 kts | 44° |
| 2026-05-04 22:01 | 39.81348 | -74.96262 | 7437 ft | 316 kts | 44° |
| 2026-05-04 22:02 | 39.83245 | -74.93333 | 6834 ft | 318 kts | 57° |
| 2026-05-04 22:02 | 39.84117 | -74.90715 | 6400 ft | 318 kts | 73° |
| 2026-05-04 22:02 | 39.84688 | -74.87962 | 5965 ft | 317 kts | 76° |
| 2026-05-04 22:02 | 39.85223 | -74.85165 | 5526 ft | 317 kts | 76° |
| 2026-05-04 22:03 | 39.85931 | -74.82478 | 5074 ft | 316 kts | 60° |
| 2026-05-04 22:03 | 39.87342 | -74.80341 | 4635 ft | 312 kts | 35° |
| 2026-05-04 22:03 | 39.89253 | -74.79165 | 4206 ft | 306 kts | 9° |
| 2026-05-04 22:03 | 39.91341 | -74.79082 | 4008 ft | 290 kts | 351° |
| 2026-05-04 22:04 | 39.93248 | -74.79550 | 3981 ft | 269 kts | 334° |
| 2026-05-04 22:04 | 39.94297 | -74.80349 | 3890 ft | 255 kts | 315° |
| 2026-05-04 22:04 | 39.95428 | -74.82829 | 3485 ft | 237 kts | 275° |
| 2026-05-04 22:04 | 39.95266 | -74.84913 | 3201 ft | 233 kts | 252° |
| 2026-05-04 22:05 | 39.94771 | -74.86937 | 3015 ft | 234 kts | 251° |
| 2026-05-04 22:05 | 39.94288 | -74.88939 | 3007 ft | 235 kts | 251° |
| 2026-05-04 22:05 | 39.93839 | -74.90924 | 2986 ft | 215 kts | 252° |
| 2026-05-04 22:05 | 39.93463 | -74.92687 | 2929 ft | 195 kts | 253° |
| 2026-05-04 22:06 | 39.93225 | -74.93831 | 2849 ft | 200 kts | 253° |
| 2026-05-04 22:06 | 39.92767 | -74.96080 | 2649 ft | 182 kts | 253° |
| 2026-05-04 22:06 | 39.92456 | -74.97629 | 2613 ft | 175 kts | 253° |
| 2026-05-04 22:06 | 39.92151 | -74.99152 | 2516 ft | 174 kts | 253° |
| 2026-05-04 22:07 | 39.91846 | -75.00678 | 2374 ft | 169 kts | 253° |
| 2026-05-04 22:07 | 39.91556 | -75.02132 | 2207 ft | 166 kts | 253° |
| 2026-05-04 22:07 | 39.91264 | -75.03592 | 2101 ft | 168 kts | 253° |
| 2026-05-04 22:07 | 39.90971 | -75.05057 | 2103 ft | 168 kts | 253° |
| 2026-05-04 22:08 | 39.90675 | -75.06539 | 2098 ft | 168 kts | 253° |
| 2026-05-04 22:08 | 39.90387 | -75.07981 | 2072 ft | 159 kts | 253° |
| 2026-05-04 22:08 | 39.90122 | -75.09309 | 2011 ft | 149 kts | 252° |
| 2026-05-04 22:08 | 39.89859 | -75.10622 | 1799 ft | 147 kts | 252° |
| 2026-05-04 22:09 | 39.89603 | -75.11893 | 1591 ft | 143 kts | 253° |
| 2026-05-04 22:09 | 39.89354 | -75.13139 | 1397 ft | 141 kts | 252° |
| 2026-05-04 22:09 | 39.89108 | -75.14369 | 1216 ft | 141 kts | 253° |
| 2026-05-04 22:09 | 39.88861 | -75.15601 | 1046 ft | 139 kts | 253° |
| 2026-05-04 22:10 | 39.88620 | -75.16808 | 882 ft | 139 kts | 253° |
| 2026-05-04 22:10 | 39.88390 | -75.18036 | 721 ft | 142 kts | 254° |
| 2026-05-04 22:10 | 39.88146 | -75.19293 | 518 ft | 141 kts | 252° |
| 2026-05-04 22:10 | 39.87875 | -75.20499 | 341 ft | 139 kts | 253° |
| 2026-05-04 22:11 | 39.87638 | -75.21716 | 145 ft | 138 kts | 253° |
| 2026-05-04 22:11 | 39.87402 | -75.22920 | 24 ft | 129 kts | 251° |
| 2026-05-04 22:11 | 39.87201 | -75.23904 | 18 ft | 95 kts | 256° |
| 2026-05-04 22:11 | 39.87065 | -75.24580 | 20 ft | 59 kts | 257° |
| 2026-05-04 22:12 | 39.87005 | -75.25009 | 22 ft | 37 kts | 272° |
| 2026-05-04 22:12 | 39.87015 | -75.25128 | 23 ft | 0 kts | 283° |
| 2026-05-04 22:13 | 39.87019 | -75.25145 | 23 ft | 7 kts | 286° |
| 2026-05-04 22:13 | 39.87070 | -75.25214 | 23 ft | 11 kts | 344° |
| 2026-05-04 22:14 | 39.87134 | -75.25163 | 23 ft | 13 kts | 67° |
| 2026-05-04 22:14 | 39.87161 | -75.25041 | 22 ft | 14 kts | 76° |
| 2026-05-04 22:14 | 39.87186 | -75.24911 | 21 ft | 15 kts | 75° |
| 2026-05-04 22:14 | 39.87215 | -75.24771 | 20 ft | 16 kts | 75° |
| 2026-05-04 22:15 | 39.87244 | -75.24624 | 19 ft | 17 kts | 76° |
| 2026-05-04 22:15 | 39.87275 | -75.24473 | 19 ft | 17 kts | 76° |
| 2026-05-04 22:15 | 39.87306 | -75.24318 | 18 ft | 17 kts | 76° |
| 2026-05-04 22:15 | 39.87337 | -75.24161 | 18 ft | 17 kts | 75° |
| 2026-05-04 22:16 | 39.87369 | -75.24003 | 18 ft | 16 kts | 75° |
| 2026-05-04 22:16 | 39.87393 | -75.23887 | 18 ft | 13 kts | 75° |
| 2026-05-04 22:16 | 39.87408 | -75.23814 | 18 ft | 5 kts | 69° |
| 2026-05-04 22:16 | 39.87436 | -75.23789 | 17 ft | 5 kts | 356° |
| 2026-05-04 22:17 | 39.87476 | -75.23794 | 17 ft | 4 kts | 354° |
| 2026-05-04 22:17 | 39.87487 | -75.23795 | 17 ft | 0 kts | 355° |